Time;durP1;ratioP1;P1;durP2;ratioP2;P2;SDS_P1;SDS_P2;PMS_P1;PMS_P2;Temp;Humidity;BMP_temperature;BMP_pressure;BME280_temperature;BME280_humidity;BME280_pressure;Samples;Min_cycle;Max_cycle;Signal;HPM_P1;HPM_P2
2022/10/17 00:01:01;;;;;;;0.90;0.67;;;15.10;99.90;;;;;;4993408;28;20992;-82
2022/10/17 00:03:28;;;;;;;1.53;1.43;;;15.10;99.90;;;;;;4993491;28;20936;-82
2022/10/17 00:05:54;;;;;;;0.50;0.40;;;15.00;99.90;;;;;;4992248;28;20456;-81
2022/10/17 00:08:23;;;;;;;0.60;0.47;;;15.00;99.90;;;;;;4993539;28;20491;-82
2022/10/17 00:10:56;;;;;;;0.80;0.80;;;14.90;99.90;;;;;;4992421;28;20469;-82
2022/10/17 00:13:24;;;;;;;0.87;0.47;;;14.80;99.90;;;;;;4993762;28;20457;-82
2022/10/17 00:15:51;;;;;;;1.10;0.57;;;14.80;99.90;;;;;;4993870;28;20453;-82
2022/10/17 00:18:17;;;;;;;0.67;0.50;;;14.80;99.90;;;;;;4994013;28;20449;-82
2022/10/17 00:20:44;;;;;;;0.60;0.60;;;14.70;99.90;;;;;;4993739;28;20476;-82
2022/10/17 00:23:11;;;;;;;1.10;0.50;;;14.70;99.90;;;;;;4993947;28;20441;-82
2022/10/17 00:25:40;;;;;;;0.60;0.53;;;14.60;99.90;;;;;;4993056;28;20453;-82
2022/10/17 00:28:08;;;;;;;0.50;0.50;;;14.60;99.90;;;;;;4993897;28;20476;-82
2022/10/17 00:30:35;;;;;;;0.90;0.50;;;14.60;99.90;;;;;;4993764;28;20484;-81
2022/10/17 00:33:02;;;;;;;0.70;0.63;;;14.50;99.90;;;;;;4993936;28;20453;-82
2022/10/17 00:35:28;;;;;;;0.40;0.30;;;14.50;99.90;;;;;;4993902;28;20453;-82
2022/10/17 00:37:55;;;;;;;0.80;0.60;;;14.50;99.90;;;;;;4992938;28;20449;-82
2022/10/17 00:40:23;;;;;;;0.40;0.37;;;14.50;99.90;;;;;;4993565;28;20469;-82
2022/10/17 00:42:52;;;;;;;0.50;0.40;;;14.40;99.90;;;;;;4993796;28;20449;-82
2022/10/17 00:45:23;;;;;;;0.80;0.50;;;14.40;99.90;;;;;;4993506;28;20446;-82
2022/10/17 00:47:54;;;;;;;0.80;0.80;;;14.30;99.90;;;;;;4992603;28;20441;-82
2022/10/17 00:50:22;;;;;;;0.60;0.50;;;14.30;99.90;;;;;;4993727;28;20484;-82
2022/10/17 00:52:49;;;;;;;0.70;0.70;;;14.30;99.90;;;;;;4993724;28;20460;-82
2022/10/17 00:55:20;;;;;;;0.50;0.50;;;14.30;99.90;;;;;;4993468;28;20942;-82
2022/10/17 00:57:47;;;;;;;0.60;0.50;;;14.20;99.90;;;;;;4993385;28;20453;-82
2022/10/17 01:00:17;;;;;;;0.50;0.50;;;14.20;99.90;;;;;;4993613;28;20584;-82
2022/10/17 01:02:45;;;;;;;0.70;0.70;;;14.20;99.90;;;;;;4993155;28;20915;-82
2022/10/17 01:05:12;;;;;;;0.50;0.40;;;14.20;99.90;;;;;;4975104;28;20956;-82
2022/10/17 01:07:41;;;;;;;0.50;0.50;;;14.20;99.90;;;;;;4996156;28;20452;-82
2022/10/17 01:10:09;;;;;;;0.70;0.43;;;14.10;99.90;;;;;;4996710;28;20453;-82
2022/10/17 01:12:56;;;;;;;0.77;0.50;;;14.10;99.90;;;;;;4997921;28;20808;-82
2022/10/17 01:15:36;;;;;;;0.53;0.50;;;14.10;99.90;;;;;;4997187;28;20449;-82
2022/10/17 01:18:14;;;;;;;0.40;0.40;;;14.00;99.90;;;;;;4996363;28;20436;-82
2022/10/17 01:21:17;;;;;;;0.97;0.77;;;14.00;99.90;;;;;;4996766;28;20479;-82
2022/10/17 01:24:12;;;;;;;0.50;0.50;;;14.00;99.90;;;;;;4996858;28;20437;-82
2022/10/17 01:26:55;;;;;;;0.90;0.90;;;13.90;99.90;;;;;;4996871;28;20433;-82
2022/10/17 01:29:39;;;;;;;0.50;0.50;;;13.90;99.90;;;;;;4995961;28;20483;-82
2022/10/17 01:32:16;;;;;;;0.90;0.50;;;13.90;99.90;;;;;;4996469;28;20433;-82
2022/10/17 01:34:48;;;;;;;0.63;0.40;;;13.80;99.90;;;;;;4996692;28;20436;-82
2022/10/17 01:37:19;;;;;;;0.50;0.50;;;13.80;99.90;;;;;;4995901;28;20441;-82
2022/10/17 01:39:51;;;;;;;1.67;0.80;;;13.80;99.90;;;;;;4996552;28;20516;-82
2022/10/17 01:42:21;;;;;;;1.33;0.50;;;13.80;99.90;;;;;;4996773;28;20460;-82
2022/10/17 01:44:55;;;;;;;0.40;0.40;;;13.80;99.90;;;;;;4996239;28;20437;-82
2022/10/17 01:47:27;;;;;;;0.53;0.40;;;13.80;99.90;;;;;;4995637;28;20442;-82
2022/10/17 01:49:58;;;;;;;0.53;0.40;;;13.70;99.90;;;;;;4996211;28;20495;-82
2022/10/17 01:52:28;;;;;;;1.00;0.60;;;13.70;99.90;;;;;;4996325;28;20453;-82
2022/10/17 01:54:58;;;;;;;0.60;0.60;;;13.80;99.90;;;;;;4995336;28;20429;-82
2022/10/17 01:57:31;;;;;;;0.57;0.50;;;13.80;99.90;;;;;;4996265;28;20437;-82
2022/10/17 01:59:59;;;;;;;0.60;0.50;;;13.80;99.90;;;;;;4995907;28;20488;-82
2022/10/17 02:02:28;;;;;;;0.70;0.60;;;13.80;99.90;;;;;;4994643;28;20473;-82
2022/10/17 02:04:57;;;;;;;0.40;0.40;;;13.80;99.90;;;;;;4995080;28;20449;-82
2022/10/17 02:07:24;;;;;;;0.50;0.50;;;13.80;99.90;;;;;;4995465;28;20446;-82
2022/10/17 02:09:51;;;;;;;0.60;0.50;;;13.80;99.90;;;;;;4995854;28;20504;-82
2022/10/17 02:12:45;;;;;;;0.40;0.40;;;13.80;99.90;;;;;;4995426;28;20520;-82
2022/10/17 02:15:47;;;;;;;0.60;0.53;;;13.70;99.90;;;;;;4993551;28;20461;-82
2022/10/17 02:18:29;;;;;;;0.53;0.53;;;13.70;99.90;;;;;;4985142;28;20464;-83
2022/10/17 02:21:00;;;;;;;1.40;0.70;;;13.60;99.90;;;;;;4995748;28;20464;-82
2022/10/17 02:23:33;;;;;;;2.07;0.40;;;13.60;99.90;;;;;;4994850;28;20429;-82
2022/10/17 02:26:06;;;;;;;0.40;0.40;;;13.60;99.90;;;;;;4995615;28;20472;-82
2022/10/17 02:28:41;;;;;;;0.40;0.40;;;13.50;99.90;;;;;;4995402;28;20465;-82
2022/10/17 02:31:13;;;;;;;0.60;0.60;;;13.50;99.90;;;;;;4995560;28;20468;-82
2022/10/17 02:33:46;;;;;;;0.87;0.40;;;13.50;99.90;;;;;;4995233;28;20433;-82
2022/10/17 02:36:19;;;;;;;1.23;0.50;;;13.50;99.90;;;;;;4993996;28;20445;-82
2022/10/17 02:38:46;;;;;;;0.57;0.57;;;13.60;99.90;;;;;;4995388;28;20434;-82
2022/10/17 02:41:16;;;;;;;0.50;0.50;;;13.60;99.90;;;;;;4995358;28;20473;-82
2022/10/17 02:43:45;;;;;;;0.60;0.43;;;13.60;99.90;;;;;;4994211;28;20433;-82
2022/10/17 02:46:19;;;;;;;1.00;0.53;;;13.60;99.90;;;;;;4994856;28;20941;-82
2022/10/17 02:48:51;;;;;;;0.57;0.50;;;13.60;99.90;;;;;;4995030;28;20500;-82
2022/10/17 02:51:28;;;;;;;0.70;0.70;;;13.60;99.90;;;;;;4993817;28;20828;-82
2022/10/17 02:54:01;;;;;;;0.70;0.60;;;13.50;99.90;;;;;;4995050;28;20414;-82
2022/10/17 02:56:31;;;;;;;0.50;0.40;;;13.50;99.90;;;;;;4995054;28;20437;-82
2022/10/17 02:58:59;;;;;;;0.47;0.40;;;13.50;99.90;;;;;;4994799;28;20955;-82
2022/10/17 03:01:27;;;;;;;0.60;0.40;;;13.50;99.90;;;;;;4994012;28;20519;-82
2022/10/17 03:04:06;;;;;;;0.83;0.57;;;13.50;99.90;;;;;;4994558;28;20453;-82
2022/10/17 03:06:33;;;;;;;0.80;0.60;;;13.50;99.90;;;;;;4994475;28;20428;-82
2022/10/17 03:09:00;;;;;;;0.80;0.50;;;13.50;99.90;;;;;;4994833;28;20489;-82
2022/10/17 03:11:27;;;;;;;0.90;0.50;;;13.60;99.90;;;;;;4994559;28;20475;-82
2022/10/17 03:13:54;;;;;;;0.77;0.60;;;13.50;99.90;;;;;;4994325;28;20456;-82
2022/10/17 03:16:20;;;;;;;1.17;0.50;;;13.50;99.90;;;;;;4993350;28;20949;-82
2022/10/17 03:18:47;;;;;;;0.77;0.77;;;13.40;99.90;;;;;;4993753;28;20444;-82
2022/10/17 03:21:15;;;;;;;1.70;0.70;;;13.40;99.90;;;;;;4994423;28;20473;-82
2022/10/17 03:23:42;;;;;;;0.50;0.50;;;13.40;99.90;;;;;;4993181;28;20874;-82
2022/10/17 03:26:10;;;;;;;3.80;0.60;;;13.40;99.90;;;;;;4994679;28;20823;-82
2022/10/17 03:28:37;;;;;;;0.70;0.50;;;13.40;99.90;;;;;;4993881;28;20461;-82
2022/10/17 03:31:07;;;;;;;0.40;0.40;;;13.30;99.90;;;;;;4993724;28;20476;-82
2022/10/17 03:33:34;;;;;;;0.60;0.40;;;13.30;99.90;;;;;;4994553;28;20425;-82
2022/10/17 03:36:06;;;;;;;0.87;0.50;;;13.30;99.90;;;;;;4993877;28;20944;-82
2022/10/17 03:38:34;;;;;;;0.87;0.43;;;13.30;99.90;;;;;;4993934;28;20465;-82
2022/10/17 03:41:01;;;;;;;0.80;0.63;;;13.30;99.90;;;;;;4994262;28;20477;-82
2022/10/17 03:43:28;;;;;;;0.37;0.30;;;13.30;99.90;;;;;;4994224;28;20464;-82
2022/10/17 03:45:54;;;;;;;0.60;0.60;;;13.30;99.90;;;;;;4993500;28;20457;-82
2022/10/17 03:48:21;;;;;;;0.40;0.40;;;13.20;99.90;;;;;;4994334;28;20453;-82
2022/10/17 03:50:48;;;;;;;0.60;0.50;;;13.20;99.90;;;;;;4993773;28;20496;-82
2022/10/17 03:53:15;;;;;;;0.50;0.40;;;13.20;99.90;;;;;;4994366;28;20456;-82
2022/10/17 03:55:43;;;;;;;0.70;0.70;;;13.20;99.90;;;;;;4994332;28;20475;-82
2022/10/17 03:58:10;;;;;;;0.80;0.60;;;13.20;99.90;;;;;;4993783;28;20449;-82
2022/10/17 04:00:36;;;;;;;0.53;0.40;;;13.20;99.90;;;;;;4992993;28;20476;-82
2022/10/17 04:03:03;;;;;;;0.43;0.43;;;13.20;99.90;;;;;;4993862;28;20448;-82
2022/10/17 04:05:30;;;;;;;0.50;0.50;;;13.20;99.90;;;;;;4993921;28;20441;-82
2022/10/17 04:07:57;;;;;;;0.40;0.30;;;13.20;99.90;;;;;;4994035;28;20449;-82
2022/10/17 04:10:24;;;;;;;0.90;0.73;;;13.30;99.90;;;;;;4993951;28;20504;-82
2022/10/17 04:12:52;;;;;;;0.43;0.40;;;13.30;99.90;;;;;;4993763;28;20978;-82
2022/10/17 04:15:18;;;;;;;0.83;0.70;;;13.30;99.90;;;;;;4993033;28;20804;-82
2022/10/17 04:17:45;;;;;;;1.33;0.60;;;13.30;99.90;;;;;;4993202;28;20457;-82
2022/10/17 04:20:12;;;;;;;2.17;0.60;;;13.30;99.90;;;;;;4993104;28;20460;-82
2022/10/17 04:22:39;;;;;;;0.70;0.60;;;13.30;99.90;;;;;;4993838;28;20445;-83
2022/10/17 04:25:06;;;;;;;0.40;0.40;;;13.40;99.90;;;;;;4993858;28;20457;-82
2022/10/17 04:27:33;;;;;;;0.50;0.40;;;13.40;99.90;;;;;;4993720;28;20446;-82
2022/10/17 04:30:01;;;;;;;0.60;0.60;;;13.50;99.90;;;;;;4993293;28;20488;-82
2022/10/17 04:32:28;;;;;;;0.73;0.73;;;13.50;99.90;;;;;;4993445;28;20453;-82
2022/10/17 04:34:55;;;;;;;0.80;0.50;;;13.50;99.90;;;;;;4993685;28;20449;-82
2022/10/17 04:37:21;;;;;;;0.40;0.40;;;13.50;99.90;;;;;;4993859;28;20455;-82
2022/10/17 04:39:48;;;;;;;0.50;0.47;;;13.50;99.90;;;;;;4993471;28;20472;-82
2022/10/17 04:42:15;;;;;;;0.70;0.63;;;13.40;99.90;;;;;;4997161;28;20810;-83
2022/10/17 04:44:42;;;;;;;0.53;0.53;;;13.40;99.90;;;;;;4997133;28;20952;-83
2022/10/17 04:47:10;;;;;;;0.70;0.60;;;13.40;99.90;;;;;;4997447;28;20944;-82
2022/10/17 04:49:37;;;;;;;1.27;0.60;;;13.40;99.90;;;;;;4997240;28;20492;-83
2022/10/17 04:52:04;;;;;;;1.13;0.50;;;13.40;99.90;;;;;;4997665;28;20459;-83
2022/10/17 04:54:31;;;;;;;1.37;0.67;;;13.30;99.90;;;;;;4996503;28;20479;-82
2022/10/17 04:56:57;;;;;;;0.90;0.60;;;13.30;99.90;;;;;;4997063;28;20958;-83
2022/10/17 04:59:24;;;;;;;0.97;0.53;;;13.30;99.90;;;;;;4997314;28;20461;-82
2022/10/17 05:01:51;;;;;;;0.60;0.47;;;13.20;99.90;;;;;;4996948;28;20491;-82
2022/10/17 05:04:19;;;;;;;0.73;0.63;;;13.20;99.90;;;;;;4996648;28;20457;-82
2022/10/17 05:06:46;;;;;;;0.50;0.43;;;13.20;99.90;;;;;;4997122;28;20903;-82
2022/10/17 05:09:13;;;;;;;0.87;0.37;;;13.20;99.90;;;;;;4997135;28;20467;-82
2022/10/17 05:11:39;;;;;;;0.87;0.63;;;13.20;99.90;;;;;;4997178;28;20465;-82
2022/10/17 05:14:06;;;;;;;1.57;0.50;;;13.20;99.90;;;;;;4997199;28;20457;-82
2022/10/17 05:16:34;;;;;;;0.50;0.40;;;13.20;99.90;;;;;;4997069;28;20437;-83
2022/10/17 05:19:02;;;;;;;0.50;0.47;;;13.20;99.90;;;;;;4996544;28;20532;-82
2022/10/17 05:21:30;;;;;;;0.60;0.60;;;13.20;99.90;;;;;;4994952;28;21013;-82
2022/10/17 05:23:57;;;;;;;0.47;0.47;;;13.20;99.90;;;;;;4995751;28;20460;-82
2022/10/17 05:26:24;;;;;;;0.73;0.53;;;13.20;99.90;;;;;;4996272;28;20945;-83
2022/10/17 05:28:51;;;;;;;1.37;0.87;;;13.20;99.90;;;;;;4996535;28;20445;-82
2022/10/17 05:31:19;;;;;;;0.70;0.70;;;13.20;99.90;;;;;;4996475;28;20531;-82
2022/10/17 05:33:46;;;;;;;0.57;0.47;;;13.20;99.90;;;;;;4996507;28;20963;-82
2022/10/17 05:36:12;;;;;;;0.60;0.50;;;13.20;99.90;;;;;;4996836;28;20462;-82
2022/10/17 05:38:40;;;;;;;0.40;0.40;;;13.30;99.90;;;;;;4995888;28;20445;-82
2022/10/17 05:41:07;;;;;;;0.57;0.53;;;13.20;99.90;;;;;;4996674;28;20480;-82
2022/10/17 05:43:34;;;;;;;1.10;0.60;;;13.20;99.90;;;;;;4996434;28;20436;-82
2022/10/17 05:46:04;;;;;;;0.83;0.60;;;13.20;99.90;;;;;;4996204;28;20897;-82
2022/10/17 05:48:31;;;;;;;0.90;0.70;;;13.20;99.90;;;;;;4996288;28;20461;-82
2022/10/17 05:50:59;;;;;;;0.40;0.40;;;13.20;99.90;;;;;;4995542;28;20497;-82
2022/10/17 05:53:26;;;;;;;0.60;0.60;;;13.30;99.90;;;;;;4994876;28;20434;-83
2022/10/17 05:55:58;;;;;;;1.00;0.50;;;13.30;99.90;;;;;;4994607;28;20850;-82
2022/10/17 05:58:25;;;;;;;0.53;0.53;;;13.30;99.90;;;;;;4995138;28;20512;-82
2022/10/17 06:00:56;;;;;;;1.70;0.67;;;13.30;99.90;;;;;;4995800;28;20481;-83
2022/10/17 06:03:23;;;;;;;2.93;0.60;;;13.30;99.90;;;;;;4995012;28;20452;-82
2022/10/17 06:05:50;;;;;;;2.80;0.70;;;13.30;99.90;;;;;;4995313;28;20453;-82
2022/10/17 06:08:17;;;;;;;0.70;0.50;;;13.20;99.90;;;;;;4995569;28;20453;-82
2022/10/17 06:10:46;;;;;;;1.40;0.67;;;13.30;99.90;;;;;;4995674;28;20493;-82
2022/10/17 06:13:14;;;;;;;0.40;0.40;;;13.30;99.90;;;;;;4995539;28;20437;-78
2022/10/17 06:15:41;;;;;;;0.40;0.40;;;13.30;99.90;;;;;;4994567;28;20971;-81
2022/10/17 06:18:08;;;;;;;1.37;1.20;;;13.30;99.90;;;;;;4995401;28;20449;-82
2022/10/17 06:20:35;;;;;;;1.17;1.03;;;13.40;99.90;;;;;;4994864;28;20475;-82
2022/10/17 06:23:02;;;;;;;0.57;0.57;;;13.30;99.90;;;;;;4995255;28;20457;-83
2022/10/17 06:25:30;;;;;;;0.83;0.70;;;13.30;99.90;;;;;;4995171;28;20437;-82
2022/10/17 06:27:58;;;;;;;1.70;0.60;;;13.30;99.90;;;;;;4994512;28;20457;-81
2022/10/17 06:30:26;;;;;;;0.87;0.87;;;13.30;99.90;;;;;;4994555;28;20924;-81
2022/10/17 06:32:53;;;;;;;0.80;0.60;;;13.30;99.90;;;;;;4995759;28;20460;-81
2022/10/17 06:35:20;;;;;;;0.50;0.50;;;13.30;99.90;;;;;;4995244;28;20452;-81
2022/10/17 06:37:48;;;;;;;0.50;0.50;;;13.40;99.90;;;;;;4994423;28;20801;-81
2022/10/17 06:40:16;;;;;;;0.40;0.37;;;13.40;99.90;;;;;;4995033;28;20481;-81
2022/10/17 06:42:43;;;;;;;1.10;0.97;;;13.40;99.90;;;;;;4995677;28;20809;-81
2022/10/17 06:45:11;;;;;;;0.50;0.50;;;13.40;99.90;;;;;;4994283;28;20457;-81
2022/10/17 06:47:39;;;;;;;0.40;0.40;;;13.50;99.90;;;;;;4995239;28;20480;-81
2022/10/17 06:50:06;;;;;;;1.70;0.47;;;13.50;99.90;;;;;;4995424;28;20511;-81
2022/10/17 06:52:33;;;;;;;0.67;0.50;;;13.60;99.90;;;;;;4995390;28;20460;-81
2022/10/17 06:55:00;;;;;;;1.23;0.60;;;13.60;99.90;;;;;;4994230;28;20460;-81
2022/10/17 06:57:27;;;;;;;0.63;0.60;;;13.70;99.90;;;;;;4994017;28;20461;-82
2022/10/17 06:59:56;;;;;;;0.50;0.50;;;13.70;99.90;;;;;;4993429;28;20453;-81
2022/10/17 07:02:23;;;;;;;3.53;0.60;;;13.70;99.90;;;;;;4993454;28;20514;-81
2022/10/17 07:04:51;;;;;;;1.63;0.57;;;13.70;99.90;;;;;;4993631;28;20437;-81
2022/10/17 07:07:18;;;;;;;1.00;0.90;;;13.80;99.90;;;;;;4994065;28;20457;-81
2022/10/17 07:09:45;;;;;;;1.50;1.00;;;13.80;99.90;;;;;;4993351;28;20488;-81
2022/10/17 07:12:11;;;;;;;2.03;0.60;;;13.90;99.90;;;;;;4994023;28;20498;-81
2022/10/17 07:14:38;;;;;;;0.50;0.50;;;13.90;99.90;;;;;;4993314;28;20922;-81
2022/10/17 07:17:05;;;;;;;4.27;0.73;;;14.00;99.90;;;;;;4993426;28;20947;-82
2022/10/17 07:19:32;;;;;;;1.27;0.50;;;14.10;99.90;;;;;;4993306;28;20960;-81
2022/10/17 07:22:00;;;;;;;0.77;0.70;;;14.20;99.90;;;;;;4993434;28;20944;-81
2022/10/17 07:24:27;;;;;;;1.23;0.53;;;14.30;99.90;;;;;;4993536;28;20441;-81
2022/10/17 07:26:54;;;;;;;1.10;0.90;;;14.40;99.90;;;;;;4994095;28;20457;-82
2022/10/17 07:29:21;;;;;;;0.90;0.60;;;14.50;99.90;;;;;;4993679;28;20455;-81
2022/10/17 07:31:49;;;;;;;0.77;0.60;;;14.60;99.90;;;;;;4993632;28;21078;-81
2022/10/17 07:34:15;;;;;;;0.60;0.60;;;14.60;99.90;;;;;;4994447;28;20511;-81
2022/10/17 07:36:42;;;;;;;0.60;0.60;;;14.80;99.90;;;;;;4994159;28;20459;-81
2022/10/17 07:39:11;;;;;;;1.67;0.57;;;14.90;99.90;;;;;;4994444;28;20457;-81
2022/10/17 07:41:38;;;;;;;1.47;0.57;;;15.00;99.90;;;;;;4993833;28;20977;-81
2022/10/17 07:44:05;;;;;;;3.03;0.63;;;15.10;99.90;;;;;;4994135;28;20449;-81
2022/10/17 07:46:31;;;;;;;0.70;0.60;;;15.20;99.90;;;;;;4993883;28;20488;-81
2022/10/17 07:48:58;;;;;;;1.17;0.50;;;15.30;99.90;;;;;;4993821;28;20445;-81
2022/10/17 07:51:26;;;;;;;1.07;0.70;;;15.40;99.90;;;;;;4993560;28;21051;-81
2022/10/17 07:53:53;;;;;;;0.67;0.40;;;15.50;99.90;;;;;;4994219;28;20445;-82
2022/10/17 07:56:23;;;;;;;0.50;0.50;;;15.70;99.90;;;;;;4993940;28;20832;-81
2022/10/17 07:58:50;;;;;;;0.50;0.50;;;15.80;99.90;;;;;;4994043;28;20512;-81
2022/10/17 08:01:17;;;;;;;2.93;0.80;;;15.90;99.90;;;;;;4993428;28;20488;-81
2022/10/17 08:03:45;;;;;;;0.60;0.60;;;16.00;99.90;;;;;;4993682;28;20980;-82
2022/10/17 08:06:12;;;;;;;0.87;0.63;;;16.20;99.90;;;;;;4993909;28;20449;-81
2022/10/17 08:08:39;;;;;;;0.43;0.40;;;16.30;99.90;;;;;;4993566;28;20464;-82
2022/10/17 08:11:08;;;;;;;0.80;0.60;;;16.50;99.90;;;;;;4993587;28;20570;-81
2022/10/17 08:13:37;;;;;;;0.80;0.60;;;16.70;99.90;;;;;;4993683;28;20460;-80
2022/10/17 08:16:07;;;;;;;0.50;0.50;;;16.90;99.90;;;;;;4992806;28;20959;-81
2022/10/17 08:18:33;;;;;;;2.10;0.60;;;17.10;99.90;;;;;;4993789;28;20449;-81
2022/10/17 08:21:01;;;;;;;0.50;0.50;;;17.30;99.90;;;;;;4993369;28;20457;-81
2022/10/17 08:23:28;;;;;;;0.80;0.60;;;17.50;99.90;;;;;;4993563;28;20821;-81
2022/10/17 08:25:58;;;;;;;0.40;0.40;;;17.60;99.90;;;;;;4993521;28;20456;-81
2022/10/17 08:28:25;;;;;;;1.63;0.70;;;17.70;99.90;;;;;;4993233;28;20449;-81
2022/10/17 08:30:53;;;;;;;1.00;0.80;;;17.80;99.90;;;;;;4993078;28;20493;-81
2022/10/17 08:33:20;;;;;;;1.10;0.60;;;18.00;99.90;;;;;;4993250;28;20457;-81
2022/10/17 08:35:47;;;;;;;0.57;0.57;;;18.20;99.90;;;;;;4993200;28;20445;-81
2022/10/17 08:38:13;;;;;;;0.50;0.50;;;18.30;99.90;;;;;;4993446;28;20460;-81
2022/10/17 08:40:41;;;;;;;1.00;0.60;;;18.70;99.90;;;;;;4993493;28;20479;-81
2022/10/17 08:43:42;;;;;;;1.73;0.70;;;18.90;99.90;;;;;;4993899;28;20473;-81
2022/10/17 08:46:10;;;;;;;0.50;0.50;;;19.30;99.90;;;;;;4993351;28;20464;-81
2022/10/17 08:48:41;;;;;;;0.40;0.40;;;20.00;99.90;;;;;;4992489;28;20449;-81
2022/10/17 08:51:15;;;;;;;0.60;0.50;;;20.90;99.90;;;;;;4993078;28;20543;-82
2022/10/17 08:53:48;;;;;;;4.07;0.60;;;21.90;99.90;;;;;;4992848;28;20444;-81
2022/10/17 08:56:19;;;;;;;0.50;0.50;;;23.10;99.90;;;;;;4993235;28;20449;-81
2022/10/17 08:58:47;;;;;;;1.17;0.80;;;24.40;99.90;;;;;;4992792;28;20421;-81
2022/10/17 09:01:32;;;;;;;1.13;0.82;;;25.40;99.90;;;;;;4992805;28;20234;-82
2022/10/17 09:04:34;;;;;;;0.70;0.60;;;26.50;99.90;;;;;;4993316;28;20240;-81
2022/10/17 09:07:07;;;;;;;0.70;0.60;;;27.70;99.90;;;;;;4992405;28;20193;-81
2022/10/17 09:09:41;;;;;;;0.50;0.50;;;27.90;99.90;;;;;;4992514;28;20213;-81
2022/10/17 09:12:17;;;;;;;1.13;0.88;;;28.00;99.90;;;;;;4992722;28;20213;-82
2022/10/17 09:15:02;;;;;;;0.88;0.60;;;28.60;99.90;;;;;;4993625;28;20193;-82
2022/10/17 09:17:41;;;;;;;0.50;0.50;;;29.10;99.90;;;;;;4992765;28;20193;-82
2022/10/17 09:20:12;;;;;;;0.80;0.80;;;29.70;99.90;;;;;;4992885;28;20225;-81
2022/10/17 09:22:44;;;;;;;0.70;0.70;;;30.10;97.30;;;;;;4993532;28;20185;-81
2022/10/17 09:25:15;;;;;;;1.05;0.68;;;29.10;96.30;;;;;;4993569;28;20204;-82
2022/10/17 09:27:45;;;;;;;0.60;0.50;;;28.90;96.90;;;;;;4994367;28;20641;-82
2022/10/17 09:30:28;;;;;;;0.93;0.70;;;28.50;97.00;;;;;;4996407;28;20229;-82
2022/10/17 09:32:56;;;;;;;0.60;0.60;;;28.60;96.30;;;;;;4995990;28;20190;-81
2022/10/17 09:35:25;;;;;;;1.15;1.05;;;28.30;96.50;;;;;;4995993;28;20209;-82
2022/10/17 09:37:53;;;;;;;0.70;0.70;;;28.10;95.10;;;;;;4995999;28;20205;-82
2022/10/17 09:40:24;;;;;;;0.55;0.55;;;28.30;94.80;;;;;;4999247;28;20235;-82
2022/10/17 09:42:51;;;;;;;0.70;0.70;;;28.30;94.30;;;;;;5004725;28;20223;-82
2022/10/17 09:45:23;;;;;;;0.65;0.63;;;28.00;94.40;;;;;;4996941;28;20201;-82
2022/10/17 09:47:59;;;;;;;0.60;0.60;;;27.70;94.20;;;;;;4994810;28;20209;-83
2022/10/17 09:50:28;;;;;;;2.22;1.00;;;27.10;94.20;;;;;;4994189;28;20230;-82
2022/10/17 09:52:56;;;;;;;0.73;0.60;;;26.40;94.40;;;;;;4994227;28;20680;-81
2022/10/17 09:55:33;;;;;;;0.70;0.65;;;26.20;95.20;;;;;;4994384;28;20209;-82
2022/10/17 09:58:02;;;;;;;1.13;0.65;;;25.80;95.10;;;;;;4995083;28;20216;-82
2022/10/17 10:00:31;;;;;;;0.65;0.50;;;26.20;95.40;;;;;;4994650;28;20230;-82
2022/10/17 10:03:18;;;;;;;0.82;0.82;;;26.30;94.40;;;;;;4995824;28;20178;-82
2022/10/17 10:06:00;;;;;;;0.60;0.50;;;27.40;94.10;;;;;;4996128;28;20205;-82
2022/10/17 10:08:29;;;;;;;0.55;0.50;;;28.20;92.60;;;;;;4996309;28;20209;-83
2022/10/17 10:11:03;;;;;;;0.80;0.80;;;29.00;92.00;;;;;;4995752;28;20703;-82
2022/10/17 10:13:30;;;;;;;1.08;1.00;;;29.70;89.40;;;;;;4996220;28;20227;-82
2022/10/17 10:16:18;;;;;;;1.00;0.90;;;29.50;89.00;;;;;;4996188;28;20292;-82
2022/10/17 10:18:46;;;;;;;0.88;0.70;;;29.30;88.40;;;;;;4996175;28;20181;-82
2022/10/17 10:21:15;;;;;;;1.15;0.60;;;29.50;87.40;;;;;;4995983;28;20223;-83
2022/10/17 10:23:44;;;;;;;0.60;0.60;;;29.90;88.90;;;;;;4995996;28;20560;-82
2022/10/17 10:26:21;;;;;;;0.60;0.60;;;29.90;86.20;;;;;;4995745;28;20198;-84
2022/10/17 10:29:00;;;;;;;1.00;0.70;;;30.20;84.90;;;;;;4995672;28;20193;-82
2022/10/17 10:31:32;;;;;;;1.00;0.63;;;30.20;84.50;;;;;;4995733;28;20232;-82
2022/10/17 10:34:04;;;;;;;1.02;0.90;;;30.40;84.30;;;;;;4995844;28;20186;-82
2022/10/17 10:36:45;;;;;;;0.65;0.65;;;30.70;84.30;;;;;;4995833;28;20189;-82
2022/10/17 10:39:28;;;;;;;0.95;0.73;;;30.80;82.60;;;;;;4995343;28;20205;-82
2022/10/17 10:41:55;;;;;;;0.75;0.75;;;30.30;79.60;;;;;;4995416;28;20190;-84
2022/10/17 10:44:25;;;;;;;0.85;0.75;;;29.30;83.20;;;;;;4995415;28;20209;-84
2022/10/17 10:47:07;;;;;;;0.63;0.60;;;28.60;85.40;;;;;;4995587;28;20194;-84
2022/10/17 10:49:42;;;;;;;3.55;0.80;;;28.00;88.00;;;;;;4995171;28;20641;-83
2022/10/17 10:52:13;;;;;;;0.90;0.90;;;27.30;88.60;;;;;;4995306;28;20232;-84
2022/10/17 10:54:46;;;;;;;0.60;0.60;;;26.50;90.90;;;;;;4995578;28;20280;-83
2022/10/17 10:57:20;;;;;;;0.65;0.60;;;25.80;91.70;;;;;;4996204;28;20194;-84
2022/10/17 10:59:57;;;;;;;0.65;0.65;;;25.40;92.50;;;;;;4995427;28;20224;-83
2022/10/17 11:02:30;;;;;;;2.05;0.52;;;25.00;94.70;;;;;;4994890;28;20225;-84
2022/10/17 11:05:03;;;;;;;0.65;0.65;;;24.80;95.80;;;;;;4995320;28;20213;-83
2022/10/17 11:07:33;;;;;;;0.70;0.70;;;24.70;95.40;;;;;;4995027;28;20186;-84
2022/10/17 11:10:08;;;;;;;0.52;0.52;;;24.50;94.50;;;;;;4995363;28;20225;-84
2022/10/17 11:12:38;;;;;;;5.43;0.63;;;24.30;95.60;;;;;;4994774;28;20703;-83
2022/10/17 11:15:16;;;;;;;0.77;0.50;;;24.20;96.10;;;;;;4995052;28;20201;-83
2022/10/17 11:17:50;;;;;;;1.35;0.73;;;24.10;96.30;;;;;;4995027;28;20197;-84
2022/10/17 11:20:25;;;;;;;0.80;0.50;;;24.30;98.00;;;;;;4995117;28;20229;-84
2022/10/17 11:22:57;;;;;;;0.60;0.60;;;24.20;97.40;;;;;;4994673;28;20196;-84
2022/10/17 11:25:32;;;;;;;0.77;0.65;;;24.30;97.10;;;;;;4994762;28;20592;-84
2022/10/17 11:27:59;;;;;;;0.60;0.60;;;24.30;97.10;;;;;;4994839;28;20189;-84
2022/10/17 11:30:30;;;;;;;0.90;0.73;;;24.20;96.50;;;;;;4994739;28;20232;-84
2022/10/17 11:32:59;;;;;;;0.60;0.60;;;24.20;97.70;;;;;;4994706;28;20213;-84
2022/10/17 11:35:32;;;;;;;0.90;0.50;;;24.30;97.70;;;;;;4994419;28;20197;-83
2022/10/17 11:38:13;;;;;;;1.35;0.60;;;24.20;96.50;;;;;;4994687;28;20552;-84
2022/10/17 11:40:44;;;;;;;1.77;0.73;;;24.10;96.40;;;;;;4994533;28;20299;-84
2022/10/17 11:43:15;;;;;;;0.45;0.45;;;24.10;96.80;;;;;;4994612;28;20195;-84
2022/10/17 11:45:47;;;;;;;2.03;0.60;;;24.10;96.70;;;;;;4994243;28;20645;-84
2022/10/17 11:48:21;;;;;;;0.60;0.60;;;24.00;97.30;;;;;;4994255;28;20553;-83
2022/10/17 11:50:58;;;;;;;0.50;0.50;;;23.90;96.60;;;;;;4993601;28;20221;-83
2022/10/17 11:53:31;;;;;;;2.13;0.82;;;23.70;97.10;;;;;;4994084;28;20217;-83
2022/10/17 11:56:00;;;;;;;0.68;0.63;;;23.60;97.40;;;;;;4994387;28;20189;-84
2022/10/17 11:58:39;;;;;;;0.60;0.52;;;23.50;98.10;;;;;;4994318;28;20216;-84
2022/10/17 12:01:19;;;;;;;1.30;0.90;;;23.40;99.00;;;;;;4994029;28;20245;-83
2022/10/17 12:04:02;;;;;;;0.65;0.60;;;23.30;98.60;;;;;;4994300;28;20194;-83
2022/10/17 12:06:43;;;;;;;0.60;0.60;;;23.20;99.40;;;;;;4994359;28;20205;-83
2022/10/17 12:09:23;;;;;;;0.50;0.50;;;23.10;99.30;;;;;;4994170;28;20189;-83
2022/10/17 12:11:53;;;;;;;0.80;0.70;;;23.00;99.70;;;;;;4993777;28;20213;-83
2022/10/17 12:14:41;;;;;;;0.60;0.60;;;23.00;99.90;;;;;;4994168;28;20625;-83
2022/10/17 12:17:33;;;;;;;1.15;0.60;;;22.90;99.90;;;;;;4994081;28;20208;-84
2022/10/17 12:20:27;;;;;;;0.83;0.50;;;22.80;99.90;;;;;;4994269;28;20312;-84
2022/10/17 12:22:57;;;;;;;0.50;0.50;;;22.80;99.90;;;;;;4994007;28;20208;-84
2022/10/17 12:25:28;;;;;;;0.77;0.70;;;22.70;99.90;;;;;;4993695;28;20211;-84
2022/10/17 12:28:12;;;;;;;0.90;0.60;;;22.60;99.90;;;;;;4993701;28;20196;-84
2022/10/17 12:30:49;;;;;;;1.33;0.60;;;22.50;99.90;;;;;;4993650;28;20224;-84
2022/10/17 12:33:21;;;;;;;0.60;0.50;;;22.50;99.90;;;;;;4993580;28;20214;-83
2022/10/17 12:35:49;;;;;;;0.40;0.40;;;22.40;99.50;;;;;;4993631;28;20234;-84
2022/10/17 12:38:24;;;;;;;0.60;0.50;;;22.40;99.90;;;;;;4993515;28;20444;-83
2022/10/17 12:41:02;;;;;;;0.50;0.50;;;22.40;98.40;;;;;;4993447;28;20467;-83
2022/10/17 12:43:53;;;;;;;0.87;0.60;;;22.40;99.40;;;;;;4993870;28;20433;-84
2022/10/17 12:46:55;;;;;;;0.73;0.57;;;22.40;98.60;;;;;;4993742;28;20433;-83
2022/10/17 12:49:36;;;;;;;2.00;0.50;;;22.40;96.80;;;;;;4993299;28;20649;-83
2022/10/17 12:52:20;;;;;;;2.33;0.50;;;22.40;97.70;;;;;;4993601;28;20481;-83
2022/10/17 12:54:53;;;;;;;0.50;0.40;;;22.40;99.30;;;;;;4993451;28;20229;-83
2022/10/17 12:57:24;;;;;;;0.80;0.50;;;22.30;99.40;;;;;;4993742;28;20437;-83
2022/10/17 12:59:52;;;;;;;0.50;0.43;;;22.20;99.60;;;;;;4993601;28;20484;-84
2022/10/17 13:02:23;;;;;;;0.60;0.60;;;22.20;99.80;;;;;;4995391;28;20490;-84
2022/10/17 13:04:53;;;;;;;0.43;0.43;;;22.20;99.00;;;;;;4997775;28;20776;-83
2022/10/17 13:07:23;;;;;;;1.17;1.07;;;22.10;98.50;;;;;;4997060;28;20970;-84